Fayetteville, Georgia
Current Conditions -  °F | °C
As of 8:53 PM on Tuesday 25 Nov 2014 (Local Time) from KFFC Reporting Station
Broken Clouds Broken Clouds  
Wind Chill: 50°   Ceiling: 10000
Heat Index: 50°   Visibility: 10mi
Dew Point: 42°   Wind: 3mph
Humidity: 74%   Direction: 260°W
Pressure: 30.08"   Gusts: NA
Location:  33.45°N, 84.45°W
Report Text: KFFC 260153Z AUTO 26003KT 10SM BKN100 10/06 A3008 RMK AO2 SLP187 T01000056
Loading
Personal Weather Stations






























Interactive Weather Map New forecast layout! Learn more

10-Day Weather Forecast

Advertisements
Track Severe Weather on mobile